createdAt,value
2022-12-20T13:32:19.857Z,1.6
2022-12-20T13:33:19.894Z,1.6
2022-12-20T13:34:19.890Z,1.6
2022-12-20T13:36:19.917Z,1.6
2022-12-20T13:37:19.950Z,1.6
2022-12-20T13:38:19.896Z,1.6
2022-12-20T13:39:19.907Z,1.6
2022-12-20T13:40:19.915Z,1.6
2022-12-20T13:41:19.881Z,1.6
2022-12-20T13:42:19.949Z,1.6
2022-12-20T13:43:19.878Z,1.6
2022-12-20T13:44:19.874Z,3.5
2022-12-20T13:45:19.907Z,3.5
2022-12-20T13:46:19.964Z,3.5
2022-12-20T13:47:19.910Z,3.5
2022-12-20T13:48:19.928Z,3.5
2022-12-20T13:49:19.897Z,3.5
2022-12-20T13:50:19.888Z,3.5
2022-12-20T13:51:19.900Z,3.5
2022-12-20T13:52:19.902Z,3.5
2022-12-20T13:53:19.933Z,3.5
2022-12-20T13:54:25.198Z,3.5
2022-12-20T13:55:19.970Z,3.5
2022-12-20T13:56:19.962Z,3.5
2022-12-20T13:57:19.888Z,3.5
2022-12-20T13:58:19.931Z,3.5
2022-12-20T13:59:19.888Z,3.5
2022-12-20T14:00:19.899Z,3.5
2022-12-20T14:01:20.056Z,3.5
2022-12-20T14:02:20.162Z,3.5
2022-12-20T14:03:20.096Z,3.5
2022-12-20T14:04:20.029Z,3.5
2022-12-20T14:05:19.897Z,3.5
2022-12-20T14:06:26.099Z,3.5
2022-12-20T14:07:19.949Z,3.5
2022-12-20T14:08:19.940Z,3.5
2022-12-20T14:09:19.897Z,3.5
2022-12-20T14:10:19.925Z,3.5
2022-12-20T14:11:19.943Z,3.5
2022-12-20T14:12:26.251Z,3.5
2022-12-20T14:13:19.927Z,3.5
2022-12-20T14:14:19.919Z,3.5
2022-12-20T14:15:19.930Z,3
2022-12-20T14:16:20.167Z,3
2022-12-20T14:17:19.906Z,3
2022-12-20T14:18:20.025Z,3
2022-12-20T14:19:19.946Z,3
2022-12-20T14:20:19.947Z,3
2022-12-20T14:21:19.927Z,3
2022-12-20T14:22:19.995Z,3
2022-12-20T14:23:19.922Z,3
2022-12-20T14:24:19.944Z,3
2022-12-20T14:25:19.895Z,3
2022-12-20T14:26:19.929Z,3
2022-12-20T14:27:19.933Z,3
2022-12-20T14:28:24.945Z,3
2022-12-20T14:29:19.909Z,3
2022-12-20T14:30:19.969Z,3
2022-12-20T14:31:20.040Z,3
2022-12-20T14:32:19.919Z,3
2022-12-20T14:33:19.961Z,3
2022-12-20T14:34:20.771Z,3
2022-12-20T14:35:19.938Z,3
2022-12-20T14:36:19.960Z,3
2022-12-20T14:37:19.937Z,3
2022-12-20T14:38:19.920Z,3
2022-12-20T14:39:19.972Z,3
2022-12-20T14:40:19.930Z,3
2022-12-20T14:41:19.935Z,3
2022-12-20T14:42:19.914Z,3
2022-12-20T14:43:19.907Z,3
2022-12-20T14:44:19.922Z,3
2022-12-20T14:45:19.958Z,3
2022-12-20T14:46:20.079Z,3
2022-12-20T14:47:19.919Z,3
2022-12-20T14:48:19.954Z,3
2022-12-20T14:49:19.916Z,3
2022-12-20T14:50:20.028Z,3
2022-12-20T14:51:19.942Z,3
2022-12-20T14:52:19.921Z,3
2022-12-20T14:53:19.915Z,3
2022-12-20T14:54:56.225Z,3
2022-12-20T14:55:20.079Z,3
2022-12-20T14:56:19.927Z,3
2022-12-20T14:57:19.906Z,3
2022-12-20T14:58:19.917Z,3
2022-12-20T14:59:19.931Z,3
2022-12-20T15:00:19.925Z,3
2022-12-20T15:01:20.115Z,3
2022-12-20T15:02:20.183Z,3
2022-12-20T15:03:20.245Z,3
2022-12-20T15:04:19.959Z,3
2022-12-20T15:05:19.932Z,3
2022-12-20T15:06:19.925Z,3
2022-12-20T15:07:25.851Z,3
2022-12-20T15:08:19.924Z,3
2022-12-20T15:09:19.943Z,3
2022-12-20T15:10:19.980Z,3
2022-12-20T15:11:22.535Z,3
2022-12-20T15:12:19.940Z,3
2022-12-20T15:13:19.961Z,3
2022-12-20T15:14:19.943Z,3
2022-12-20T15:15:29.330Z,3
2022-12-20T15:16:20.120Z,3
2022-12-20T15:17:19.940Z,3
2022-12-20T15:18:19.943Z,2.2
2022-12-20T15:19:19.923Z,2.2
2022-12-20T15:20:19.945Z,2.2
2022-12-20T15:21:19.990Z,2.2
2022-12-20T15:22:19.927Z,2.2
2022-12-20T15:23:19.976Z,2.2
2022-12-20T15:24:20.020Z,2.2
2022-12-20T15:25:19.959Z,2.2
2022-12-20T15:26:19.925Z,2.2
2022-12-20T15:27:19.944Z,2.2
2022-12-20T15:28:19.981Z,2.2
2022-12-20T15:29:20.007Z,2.2
2022-12-20T15:30:19.996Z,2.2
2022-12-20T15:31:19.991Z,2.2
2022-12-20T15:32:19.967Z,2.2
2022-12-20T15:33:19.968Z,2.2
2022-12-20T15:34:19.930Z,2.2
2022-12-20T15:35:19.934Z,2.2
2022-12-20T15:36:19.928Z,2.2
2022-12-20T15:37:19.940Z,2.2
2022-12-20T15:38:25.526Z,2.2
2022-12-20T15:39:19.940Z,2.2
2022-12-20T15:40:19.950Z,2.2
2022-12-20T15:41:20.007Z,2.2
2022-12-20T15:42:19.934Z,2.2
2022-12-20T15:43:19.939Z,2.2
2022-12-20T15:44:19.954Z,2.2
2022-12-20T15:45:19.970Z,2.2
2022-12-20T15:46:19.976Z,1.8
2022-12-20T15:47:19.930Z,1.8
2022-12-20T15:48:19.947Z,1.8
2022-12-20T15:49:19.927Z,1.8
2022-12-20T15:50:19.950Z,1.8
2022-12-20T15:51:19.991Z,1.8
2022-12-20T15:52:19.994Z,1.8
2022-12-20T15:53:19.933Z,1.8
2022-12-20T15:54:19.946Z,1.8
2022-12-20T15:55:19.941Z,1.8
2022-12-20T15:56:19.938Z,1.8
2022-12-20T15:57:19.971Z,1.8
2022-12-20T15:58:19.948Z,1.8
2022-12-20T15:59:57.719Z,1.5
2022-12-20T16:00:19.972Z,1.5
2022-12-20T16:01:20.222Z,1.5
2022-12-20T16:02:20.059Z,1.5
2022-12-20T16:03:20.136Z,1.5
2022-12-20T16:04:20.077Z,1.5
2022-12-20T16:05:19.923Z,1.5
2022-12-20T16:06:19.941Z,1.5
2022-12-20T16:07:19.962Z,1.5
2022-12-20T16:08:19.927Z,1.5
2022-12-20T16:09:19.937Z,1.5
2022-12-20T16:10:20.053Z,1.5
2022-12-20T16:11:19.945Z,1.5
2022-12-20T16:12:19.926Z,1.5
2022-12-20T16:13:21.311Z,1.5
2022-12-20T16:14:19.993Z,1.5
2022-12-20T16:15:19.963Z,1.5
2022-12-20T16:16:19.962Z,1.5
2022-12-20T16:17:19.996Z,1.5
2022-12-20T16:18:19.962Z,1.5
2022-12-20T16:19:19.948Z,1.2
2022-12-20T16:20:20.018Z,1.2
2022-12-20T16:21:19.941Z,1.2
2022-12-20T16:22:19.982Z,1.2
2022-12-20T16:23:19.972Z,1.2
2022-12-20T16:24:19.986Z,1.2
2022-12-20T16:25:20.321Z,1.2
2022-12-20T16:26:19.986Z,1.2
2022-12-20T16:27:19.934Z,1.2
2022-12-20T16:28:19.978Z,1.2
2022-12-20T16:29:19.962Z,1.2
2022-12-20T16:30:19.983Z,1.2
2022-12-20T16:31:20.042Z,1.2
2022-12-20T16:32:20.009Z,1.2
2022-12-20T16:33:19.973Z,1.2
2022-12-20T16:34:20.012Z,1.2
2022-12-20T16:35:19.987Z,1.2
2022-12-20T16:36:20.018Z,1.2
2022-12-20T16:37:19.966Z,1.2
2022-12-20T16:38:19.975Z,1.2
2022-12-20T16:39:20.027Z,1.2
2022-12-20T16:40:20.001Z,1.2
2022-12-20T16:41:19.969Z,1.2
2022-12-20T16:42:19.976Z,1.2
2022-12-20T16:43:19.976Z,1.2
2022-12-20T16:44:19.950Z,1.2
2022-12-20T16:45:20.020Z,1.2
2022-12-20T16:46:20.121Z,1.2
2022-12-20T16:47:20.134Z,1.2
2022-12-20T16:48:19.969Z,1.2
2022-12-20T16:49:21.071Z,1.2
2022-12-20T16:50:20.007Z,1.2
2022-12-20T16:51:20.008Z,1.2
2022-12-20T16:52:20.040Z,1.2
2022-12-20T16:53:19.964Z,1.2
2022-12-20T16:54:20.943Z,1.2
2022-12-20T16:55:19.990Z,1.2
2022-12-20T16:56:19.995Z,1.2
2022-12-20T16:57:19.973Z,1.2
2022-12-20T16:58:19.974Z,1.2
2022-12-20T16:59:22.087Z,1.2
2022-12-20T17:00:20.064Z,1.2
2022-12-20T17:01:20.191Z,1.2
2022-12-20T17:02:20.264Z,1.2
2022-12-20T17:03:20.222Z,1.2
2022-12-20T17:04:20.012Z,1.2
2022-12-20T17:05:19.984Z,1.2
2022-12-20T17:06:20.035Z,1.2
2022-12-20T17:07:19.996Z,1.2
2022-12-20T17:09:19.990Z,1.2
2022-12-20T17:10:20.069Z,1.2
2022-12-20T17:11:20.084Z,1.5
2022-12-20T17:12:20.035Z,1.5
2022-12-20T17:13:20.003Z,1.5
2022-12-20T17:14:20.204Z,1.5
2022-12-20T17:15:19.983Z,1.5
2022-12-20T17:16:20.064Z,1.5
2022-12-20T17:17:20.053Z,1.5
2022-12-20T17:18:20.030Z,1.5
2022-12-20T17:19:20.014Z,1.5
2022-12-20T17:20:19.993Z,1.5
2022-12-20T17:21:19.989Z,1.5
2022-12-20T17:22:23.051Z,1.5
2022-12-20T17:23:20.049Z,1.5
2022-12-20T17:24:20.009Z,1.5
2022-12-20T17:25:20.000Z,1.4
2022-12-20T17:26:19.992Z,1.4
2022-12-20T17:27:19.991Z,1.4
2022-12-20T17:28:20.038Z,1.4
2022-12-20T17:29:19.986Z,1.4
2022-12-20T17:30:20.034Z,1.4
2022-12-20T17:31:20.007Z,1.4
2022-12-20T17:32:20.026Z,1.4
2022-12-20T17:33:20.053Z,1.4
2022-12-20T17:34:20.049Z,1.4
2022-12-20T17:35:19.976Z,1.4
2022-12-20T17:36:19.997Z,1.4
2022-12-20T17:37:19.977Z,1.4
2022-12-20T17:38:20.001Z,1.4
2022-12-20T17:39:19.991Z,1.4
2022-12-20T17:40:20.017Z,1.4
2022-12-20T17:41:19.993Z,1.4
2022-12-20T17:42:23.155Z,1.4
2022-12-20T17:43:20.005Z,1.4
2022-12-20T17:44:19.991Z,1.4
2022-12-20T17:45:20.014Z,1.4
2022-12-20T17:46:20.055Z,1.4
2022-12-20T17:47:20.001Z,1.4
2022-12-20T17:48:20.008Z,1.4
2022-12-20T17:49:19.995Z,1.4
2022-12-20T17:50:20.012Z,1.4
2022-12-20T17:51:19.988Z,1.4
2022-12-20T17:52:20.003Z,1.4
2022-12-20T17:53:20.007Z,1.4
2022-12-20T17:54:20.028Z,1.4
2022-12-20T17:55:19.989Z,1.4
2022-12-20T17:56:19.981Z,1.4
2022-12-20T17:57:20.027Z,1.4
2022-12-20T17:58:19.979Z,1.4
2022-12-20T17:59:19.975Z,1.4
2022-12-20T18:00:20.047Z,1.4
2022-12-20T18:01:20.186Z,1.4
2022-12-20T18:02:20.140Z,1.4
2022-12-20T18:03:44.942Z,1.4
2022-12-20T18:04:20.064Z,1.4
2022-12-20T18:05:19.977Z,1.4
2022-12-20T18:06:20.043Z,1.4
2022-12-20T18:07:20.033Z,1.4
2022-12-20T18:08:19.988Z,1.5
2022-12-20T18:09:19.967Z,1.5
2022-12-20T18:10:19.975Z,1.5
2022-12-20T18:11:19.989Z,1.5
2022-12-20T18:12:20.044Z,1.5
2022-12-20T18:13:19.999Z,1.5
2022-12-20T18:14:20.014Z,1.5
2022-12-20T18:15:20.035Z,1.5
2022-12-20T18:16:20.110Z,1.5
2022-12-20T18:17:20.001Z,1.5
2022-12-20T18:18:20.008Z,1.5
2022-12-20T18:19:19.988Z,1.5
2022-12-20T18:20:20.074Z,1.5
2022-12-20T18:21:20.007Z,1.5
2022-12-20T18:22:19.999Z,1.5
2022-12-20T18:23:20.020Z,1.5
2022-12-20T18:24:20.006Z,1.5
2022-12-20T18:25:20.017Z,1.5
2022-12-20T18:26:20.052Z,1.5
2022-12-20T18:27:23.727Z,1.5
2022-12-20T18:28:20.020Z,1.5
2022-12-20T18:29:20.050Z,1.5
2022-12-20T18:30:20.044Z,1.5
2022-12-20T18:31:20.116Z,1.5
2022-12-20T18:32:20.039Z,1.5
2022-12-20T18:33:20.015Z,1.5
2022-12-20T18:34:20.038Z,1.5
2022-12-20T18:35:20.030Z,1.5
2022-12-20T18:36:20.031Z,1.5
2022-12-20T18:37:20.041Z,1.5
2022-12-20T18:38:20.009Z,1.5
2022-12-20T18:39:20.038Z,1.5
2022-12-20T18:40:20.072Z,1.5
2022-12-20T18:41:20.082Z,1.5
2022-12-20T18:42:20.048Z,1.5
2022-12-20T18:43:20.027Z,1.5
2022-12-20T18:44:20.043Z,1.4
2022-12-20T18:45:20.037Z,1.4
2022-12-20T18:46:20.082Z,1.4
2022-12-20T18:47:20.063Z,1.4
2022-12-20T18:48:20.045Z,1.4
2022-12-20T18:49:20.097Z,1.4
2022-12-20T18:50:20.050Z,1.4
2022-12-20T18:51:20.105Z,1.4
2022-12-20T18:52:20.081Z,1.4
2022-12-20T18:53:20.037Z,1.4
2022-12-20T18:54:20.019Z,1.4
2022-12-20T18:55:20.085Z,1.4
2022-12-20T18:56:20.034Z,1.4
2022-12-20T18:57:20.076Z,1.4
2022-12-20T18:58:20.270Z,1.4
2022-12-20T18:59:20.033Z,1.4
2022-12-20T19:00:20.079Z,1.4
2022-12-20T19:01:20.228Z,1.4
2022-12-20T19:02:20.343Z,1.4
2022-12-20T19:03:20.161Z,1.4
2022-12-20T19:04:24.651Z,1.4
2022-12-20T19:05:20.059Z,1.4
2022-12-20T19:06:20.110Z,1.3
2022-12-20T19:07:20.035Z,1.3
2022-12-20T19:08:20.033Z,1.3
2022-12-20T19:09:20.054Z,1.3
2022-12-20T19:10:20.119Z,1.3
2022-12-20T19:11:20.057Z,1.3
2022-12-20T19:12:20.072Z,1.3
2022-12-20T19:13:20.031Z,1.3
2022-12-20T19:14:20.057Z,1.3
2022-12-20T19:15:20.039Z,1.3
2022-12-20T19:16:20.122Z,1.3
2022-12-20T19:17:20.293Z,1.3
2022-12-20T19:18:20.067Z,1.3
2022-12-20T19:19:20.044Z,1.3
2022-12-20T19:20:20.075Z,1.3
2022-12-20T19:21:20.079Z,1.3
2022-12-20T19:22:20.063Z,1.3
2022-12-20T19:23:20.083Z,1.3
2022-12-20T19:24:20.090Z,1.3
2022-12-20T19:25:20.080Z,1.3
2022-12-20T19:26:20.105Z,1.1
2022-12-20T19:27:20.061Z,1.1
2022-12-20T19:28:20.129Z,1.1
2022-12-20T19:29:20.066Z,1.1
2022-12-20T19:30:20.410Z,1.1
2022-12-20T19:31:22.285Z,1.1
2022-12-20T19:32:20.079Z,1.1
2022-12-20T19:33:20.062Z,1.1
2022-12-20T19:34:20.099Z,1.1
2022-12-20T19:35:53.294Z,1.1
2022-12-20T19:36:22.106Z,1.1
2022-12-20T19:37:20.079Z,1.1
2022-12-20T19:38:21.089Z,1.1
2022-12-20T19:39:20.152Z,1.1
2022-12-20T19:40:20.166Z,1.1
2022-12-20T19:41:20.137Z,1.1
2022-12-20T19:42:24.942Z,1.1
2022-12-20T19:43:20.082Z,1.1
2022-12-20T19:44:20.090Z,1.1
2022-12-20T19:45:20.090Z,1.1
2022-12-20T19:46:23.892Z,1.1
2022-12-20T19:47:20.073Z,1.1
2022-12-20T19:48:20.066Z,1.1
2022-12-20T19:49:20.096Z,1.1
2022-12-20T19:50:20.148Z,1.1
2022-12-20T19:51:20.097Z,1.1
2022-12-20T19:52:26.495Z,1.1
2022-12-20T19:53:20.063Z,1.1
2022-12-20T19:54:20.135Z,1.1
2022-12-20T19:55:20.115Z,1.1
2022-12-20T19:56:20.075Z,1.1
2022-12-20T19:57:20.066Z,1
2022-12-20T19:58:20.068Z,1
2022-12-20T19:59:20.077Z,1
2022-12-20T20:00:20.149Z,1
2022-12-20T20:01:20.144Z,1
2022-12-20T20:02:20.382Z,1
2022-12-20T20:03:20.272Z,1
2022-12-20T20:04:20.068Z,1
2022-12-20T20:05:20.092Z,1
2022-12-20T20:06:20.092Z,1
2022-12-20T20:07:20.108Z,1
2022-12-20T20:08:20.089Z,1
2022-12-20T20:09:20.117Z,1
2022-12-20T20:10:20.141Z,1
2022-12-20T20:11:20.094Z,1
2022-12-20T20:12:20.101Z,1
2022-12-20T20:13:20.094Z,1
2022-12-20T20:14:20.082Z,1
2022-12-20T20:15:20.118Z,1
2022-12-20T20:16:22.146Z,1
2022-12-20T20:17:20.111Z,1
2022-12-20T20:18:20.106Z,1
2022-12-20T20:19:20.124Z,1
2022-12-20T20:20:20.141Z,1
2022-12-20T20:21:20.091Z,1
2022-12-20T20:22:23.096Z,1
2022-12-20T20:23:20.113Z,1
2022-12-20T20:24:20.110Z,1
2022-12-20T20:25:20.147Z,1
2022-12-20T20:26:20.419Z,1
2022-12-20T20:27:20.139Z,1
2022-12-20T20:28:20.133Z,1
2022-12-20T20:29:20.109Z,1
2022-12-20T20:30:20.180Z,1
2022-12-20T20:31:20.262Z,1
2022-12-20T20:32:20.137Z,1
2022-12-20T20:33:20.198Z,1
2022-12-20T20:34:20.123Z,1
2022-12-20T20:35:20.157Z,1
2022-12-20T20:36:20.152Z,1
2022-12-20T20:37:20.134Z,1
2022-12-20T20:38:20.207Z,1
2022-12-20T20:39:20.126Z,1
2022-12-20T20:40:20.140Z,1
2022-12-20T20:41:20.170Z,1
2022-12-20T20:42:23.467Z,1
2022-12-20T20:43:20.153Z,1
2022-12-20T20:44:20.197Z,1
2022-12-20T20:45:20.148Z,1
2022-12-20T20:46:20.198Z,1
2022-12-20T20:47:20.151Z,1
2022-12-20T20:48:20.140Z,1
2022-12-20T20:49:20.158Z,1
2022-12-20T20:50:20.151Z,1
2022-12-20T20:51:20.150Z,1
2022-12-20T20:52:20.144Z,1
2022-12-20T20:53:20.157Z,1
2022-12-20T20:54:20.126Z,0.6
2022-12-20T20:55:20.162Z,0.6
2022-12-20T20:56:20.158Z,0.6
2022-12-20T20:57:20.139Z,0.6
2022-12-20T20:58:20.175Z,0.6
2022-12-20T20:59:20.158Z,0.6
2022-12-20T21:00:20.183Z,0.6
2022-12-20T21:01:20.160Z,0.6
2022-12-20T21:02:20.537Z,0.6
2022-12-20T21:03:20.203Z,0.6
2022-12-20T21:04:20.139Z,0.6
2022-12-20T21:06:07.130Z,0.6
2022-12-20T21:06:40.639Z,0.6
2022-12-20T21:07:20.132Z,0.6
2022-12-20T21:08:20.151Z,0.6
2022-12-20T21:09:20.145Z,0.6
2022-12-20T21:10:20.351Z,0.6
2022-12-20T21:11:20.356Z,0.6
2022-12-20T21:12:20.278Z,0.6
2022-12-20T21:13:20.158Z,0.7
2022-12-20T21:14:36.507Z,0.7
2022-12-20T21:15:23.433Z,0.7
2022-12-20T21:16:20.786Z,0.7
2022-12-20T21:17:20.165Z,0.7
2022-12-20T21:18:20.140Z,0.7
2022-12-20T21:19:20.158Z,0.7
2022-12-20T21:20:25.753Z,0.7
2022-12-20T21:21:20.148Z,0.7
2022-12-20T21:22:20.163Z,0.7
2022-12-20T21:23:20.142Z,0.7
2022-12-20T21:24:20.137Z,0.7
2022-12-20T21:25:20.148Z,0.7
2022-12-20T21:26:20.232Z,0.7
2022-12-20T21:27:20.222Z,0.7
2022-12-20T21:28:21.536Z,0.7
2022-12-20T21:29:20.132Z,0.7
2022-12-20T21:30:20.132Z,0.7
2022-12-20T21:31:20.289Z,0.7
2022-12-20T21:32:20.212Z,0.7
2022-12-20T21:33:20.159Z,0.7
2022-12-20T21:34:20.167Z,0.7
2022-12-20T21:35:20.191Z,0.7
2022-12-20T21:36:20.199Z,0.7
2022-12-20T21:37:20.161Z,0.7
2022-12-20T21:38:20.200Z,0.7
2022-12-20T21:39:20.208Z,0.7
2022-12-20T21:40:20.226Z,0.7
2022-12-20T21:41:20.224Z,0.8
2022-12-20T21:42:20.156Z,0.8
2022-12-20T21:43:20.150Z,0.8
2022-12-20T21:44:20.222Z,0.8
2022-12-20T21:45:20.197Z,0.8
2022-12-20T21:46:20.256Z,0.8
2022-12-20T21:47:20.212Z,0.8
2022-12-20T21:48:20.191Z,0.8
2022-12-20T21:49:20.299Z,0.8
2022-12-20T21:50:20.172Z,0.6
2022-12-20T21:51:20.283Z,0.6
2022-12-20T21:52:20.435Z,0.6
2022-12-20T21:53:20.312Z,0.6
2022-12-20T21:54:20.187Z,0.6
2022-12-20T21:55:20.224Z,0.6
2022-12-20T21:56:20.275Z,0.6
2022-12-20T21:57:20.179Z,0.6
2022-12-20T21:58:20.163Z,0.6
2022-12-20T21:59:20.202Z,0.6
2022-12-20T22:00:20.164Z,0.6
2022-12-20T22:01:20.405Z,0.6
2022-12-20T22:02:20.544Z,0.6
2022-12-20T22:03:20.294Z,0.6
2022-12-20T22:04:20.202Z,0.6
2022-12-20T22:05:20.219Z,0.6
2022-12-20T22:06:20.194Z,0.6
2022-12-20T22:07:21.217Z,0.5
2022-12-20T22:08:20.269Z,0.5
2022-12-20T22:09:20.175Z,0.5
2022-12-20T22:10:20.292Z,0.5
2022-12-20T22:11:20.238Z,0.5
2022-12-20T22:12:20.172Z,0.5
2022-12-20T22:13:20.170Z,0.5
2022-12-20T22:14:20.184Z,0.5
2022-12-20T22:15:20.170Z,0.5
2022-12-20T22:16:21.426Z,0.4
2022-12-20T22:17:20.197Z,0.4
2022-12-20T22:18:20.216Z,0.4
2022-12-20T22:19:20.251Z,0.4
2022-12-20T22:20:20.177Z,0.4
2022-12-20T22:21:20.225Z,0.4
2022-12-20T22:22:20.180Z,0.4
2022-12-20T22:23:20.186Z,0.4
2022-12-20T22:24:20.193Z,0.4
2022-12-20T22:25:20.205Z,0.4
2022-12-20T22:26:20.249Z,0.4
2022-12-20T22:27:20.238Z,0.4
2022-12-20T22:28:20.189Z,0.4
2022-12-20T22:29:20.224Z,0.4
2022-12-20T22:30:20.262Z,0.4
2022-12-20T22:31:20.241Z,0.4
2022-12-20T22:32:20.261Z,0.4
2022-12-20T22:33:20.262Z,0.4
2022-12-20T22:34:20.200Z,0.4
2022-12-20T22:35:22.874Z,0.4
2022-12-20T22:36:20.221Z,0.4
2022-12-20T22:37:20.255Z,0.4
2022-12-20T22:38:20.201Z,0.4
2022-12-20T22:39:20.194Z,0.4
2022-12-20T22:40:20.271Z,0.4
2022-12-20T22:41:20.224Z,0.4
2022-12-20T22:42:20.228Z,0.4
2022-12-20T22:43:20.224Z,0.4
2022-12-20T22:44:20.183Z,0.4
2022-12-20T22:45:20.198Z,0.4
2022-12-20T22:47:20.168Z,0.4
2022-12-20T22:47:24.270Z,0.4
2022-12-20T22:48:20.162Z,0.4
2022-12-20T22:49:20.174Z,0.4
2022-12-20T22:50:20.207Z,0.4
2022-12-20T22:51:20.179Z,0.4
2022-12-20T22:52:20.215Z,0.4
2022-12-20T22:53:20.179Z,0.4
2022-12-20T22:54:20.171Z,0.4
2022-12-20T22:55:20.164Z,0.4
2022-12-20T22:56:20.165Z,0.4
2022-12-20T22:57:20.175Z,0.4
2022-12-20T22:58:20.208Z,0.4
2022-12-20T22:59:20.172Z,0.4
2022-12-20T23:00:20.208Z,0.4
2022-12-20T23:01:20.261Z,0.4
2022-12-20T23:02:20.410Z,0.4
2022-12-20T23:03:20.357Z,0.4
2022-12-20T23:04:20.179Z,0.4
2022-12-20T23:05:20.172Z,0.4
2022-12-20T23:06:20.213Z,0.4
2022-12-20T23:07:20.169Z,0.4
2022-12-20T23:08:20.160Z,-0.1
2022-12-20T23:09:20.205Z,-0.1
2022-12-20T23:10:20.166Z,-0.1
2022-12-20T23:11:20.209Z,-0.1
2022-12-20T23:12:20.164Z,-0.1
2022-12-20T23:13:20.185Z,-0.1
2022-12-20T23:14:20.227Z,-0.1
2022-12-20T23:15:20.184Z,-0.1
2022-12-20T23:16:20.299Z,-0.1
2022-12-20T23:17:20.166Z,-0.1
2022-12-20T23:18:20.172Z,-0.1
2022-12-20T23:19:20.215Z,-0.1
2022-12-20T23:20:20.195Z,-0.1
2022-12-20T23:21:20.197Z,-0.1
2022-12-20T23:22:20.194Z,-0.1
2022-12-20T23:23:20.172Z,-0.1
2022-12-20T23:24:20.216Z,-0.1
2022-12-20T23:25:20.191Z,-0.1
2022-12-20T23:26:20.179Z,0.1
2022-12-20T23:27:20.166Z,0.1
2022-12-20T23:28:20.180Z,0.1
2022-12-20T23:29:20.188Z,0.1
2022-12-20T23:30:20.226Z,0.1
2022-12-20T23:31:20.266Z,0.1
2022-12-20T23:32:20.185Z,0.1
2022-12-20T23:33:20.195Z,0.1
2022-12-20T23:34:20.235Z,0.1
2022-12-20T23:35:20.207Z,0.1
2022-12-20T23:36:20.228Z,0.1
2022-12-20T23:37:20.216Z,0.1
2022-12-20T23:38:20.190Z,0.1
2022-12-20T23:39:20.188Z,0.1
2022-12-20T23:40:20.191Z,0.1
2022-12-20T23:41:20.199Z,0.1
2022-12-20T23:42:20.193Z,0.1
2022-12-20T23:43:20.195Z,0
2022-12-20T23:44:20.202Z,0
2022-12-20T23:45:20.226Z,0
2022-12-20T23:46:20.298Z,0
2022-12-20T23:47:20.240Z,0
2022-12-20T23:48:20.197Z,0
2022-12-20T23:49:21.238Z,0
2022-12-20T23:50:20.224Z,0
2022-12-20T23:51:20.202Z,0
2022-12-20T23:52:20.206Z,0
2022-12-20T23:53:20.237Z,0
2022-12-20T23:54:20.251Z,0
2022-12-20T23:55:20.225Z,0
2022-12-20T23:56:20.239Z,0
2022-12-20T23:57:20.230Z,0
2022-12-20T23:58:20.207Z,0
2022-12-20T23:59:20.208Z,0
